Terminal Aerodrome Forecast
Issued by NWS Greer, SC

Home | Current Version | Previous Version | Text Only | Print | Product List | Glossary On
Versions: 1 2 3 4 5 6 7 8 9 10 11 12 13 14 15 16 17 18 19 20 21 22 23 24 25 26 27 28 29 30 31 32 33 34 35 36 37 38 39 40 41 42
000
FTUS42 KGSP 272339
TAFCLT
TAF
KCLT 272339Z 2800/2824 20004KT P6SM VCSH FEW100 OVC180
     FM280500 19004KT P6SM BKN060 OVC180
     FM280900 20003KT P6SM VCSH FEW035 BKN050
     FM281900 22008KT P6SM -TSRA SCT040 BKN070CB PROB30 2819/2823
      VRB10G25KT 3SM TSRA OVC040CB=

USA.gov is the U.S. government's official web portal to all federal, state and local government web resources and services.